sensor_id;sensor_type;location;lat;lon;timestamp;P1;durP1;ratioP1;P2;durP2;ratioP2
11125;SDS011;5617;54.046;10.676;2023-02-01T00:01:58;11.80;;;2.30;;
11125;SDS011;5617;54.046;10.676;2023-02-01T00:04:06;9.47;;;2.40;;
11125;SDS011;5617;54.046;10.676;2023-02-01T00:06:13;10.67;;;2.23;;
11125;SDS011;5617;54.046;10.676;2023-02-01T00:08:22;9.27;;;2.70;;
11125;SDS011;5617;54.046;10.676;2023-02-01T00:10:29;10.40;;;2.53;;
11125;SDS011;5617;54.046;10.676;2023-02-01T00:12:39;15.53;;;3.03;;
11125;SDS011;5617;54.046;10.676;2023-02-01T00:14:46;11.00;;;2.97;;
11125;SDS011;5617;54.046;10.676;2023-02-01T00:16:54;9.60;;;1.70;;
11125;SDS011;5617;54.046;10.676;2023-02-01T00:19:04;7.80;;;2.47;;
11125;SDS011;5617;54.046;10.676;2023-02-01T00:21:13;11.10;;;2.43;;
11125;SDS011;5617;54.046;10.676;2023-02-01T00:23:22;9.23;;;2.27;;
11125;SDS011;5617;54.046;10.676;2023-02-01T00:25:31;10.70;;;2.70;;
11125;SDS011;5617;54.046;10.676;2023-02-01T00:27:40;11.47;;;2.10;;
11125;SDS011;5617;54.046;10.676;2023-02-01T00:29:48;5.80;;;1.90;;
11125;SDS011;5617;54.046;10.676;2023-02-01T00:31:55;9.33;;;1.57;;
11125;SDS011;5617;54.046;10.676;2023-02-01T00:34:03;6.47;;;1.40;;
11125;SDS011;5617;54.046;10.676;2023-02-01T00:36:11;6.13;;;1.23;;
11125;SDS011;5617;54.046;10.676;2023-02-01T00:38:18;9.77;;;2.30;;
11125;SDS011;5617;54.046;10.676;2023-02-01T00:40:26;11.13;;;1.73;;
11125;SDS011;5617;54.046;10.676;2023-02-01T00:42:34;8.77;;;2.10;;
11125;SDS011;5617;54.046;10.676;2023-02-01T00:44:43;6.30;;;1.80;;
11125;SDS011;5617;54.046;10.676;2023-02-01T00:46:51;11.17;;;1.90;;
11125;SDS011;5617;54.046;10.676;2023-02-01T00:48:58;4.37;;;1.63;;
11125;SDS011;5617;54.046;10.676;2023-02-01T00:51:06;6.90;;;2.20;;
11125;SDS011;5617;54.046;10.676;2023-02-01T00:53:16;9.67;;;1.60;;
11125;SDS011;5617;54.046;10.676;2023-02-01T00:55:23;6.77;;;2.00;;
11125;SDS011;5617;54.046;10.676;2023-02-01T00:57:31;11.33;;;2.10;;
11125;SDS011;5617;54.046;10.676;2023-02-01T00:59:39;9.50;;;2.07;;
11125;SDS011;5617;54.046;10.676;2023-02-01T01:01:48;13.40;;;3.03;;
11125;SDS011;5617;54.046;10.676;2023-02-01T01:03:56;12.60;;;2.53;;
11125;SDS011;5617;54.046;10.676;2023-02-01T01:06:05;14.23;;;2.43;;
11125;SDS011;5617;54.046;10.676;2023-02-01T01:08:15;15.67;;;2.77;;
11125;SDS011;5617;54.046;10.676;2023-02-01T01:10:23;14.17;;;2.07;;
11125;SDS011;5617;54.046;10.676;2023-02-01T01:12:30;9.97;;;2.10;;
11125;SDS011;5617;54.046;10.676;2023-02-01T01:14:38;9.03;;;2.10;;
11125;SDS011;5617;54.046;10.676;2023-02-01T01:16:47;12.93;;;2.60;;
11125;SDS011;5617;54.046;10.676;2023-02-01T01:18:56;13.63;;;2.50;;
11125;SDS011;5617;54.046;10.676;2023-02-01T01:21:07;14.40;;;2.57;;
11125;SDS011;5617;54.046;10.676;2023-02-01T01:23:15;9.70;;;2.37;;
11125;SDS011;5617;54.046;10.676;2023-02-01T01:25:23;15.83;;;3.13;;
11125;SDS011;5617;54.046;10.676;2023-02-01T01:27:30;12.87;;;2.23;;
11125;SDS011;5617;54.046;10.676;2023-02-01T01:29:38;9.20;;;2.70;;
11125;SDS011;5617;54.046;10.676;2023-02-01T01:31:45;9.17;;;2.60;;
11125;SDS011;5617;54.046;10.676;2023-02-01T01:33:55;7.90;;;2.30;;
11125;SDS011;5617;54.046;10.676;2023-02-01T01:36:05;12.43;;;2.57;;
11125;SDS011;5617;54.046;10.676;2023-02-01T01:38:13;6.47;;;2.67;;
11125;SDS011;5617;54.046;10.676;2023-02-01T01:40:21;6.70;;;2.40;;
11125;SDS011;5617;54.046;10.676;2023-02-01T01:42:29;15.40;;;3.47;;
11125;SDS011;5617;54.046;10.676;2023-02-01T01:44:56;11.97;;;2.97;;
11125;SDS011;5617;54.046;10.676;2023-02-01T01:47:07;17.73;;;2.80;;
11125;SDS011;5617;54.046;10.676;2023-02-01T01:49:17;13.13;;;2.50;;
11125;SDS011;5617;54.046;10.676;2023-02-01T01:51:28;11.23;;;3.10;;
11125;SDS011;5617;54.046;10.676;2023-02-01T01:53:40;17.07;;;3.23;;
11125;SDS011;5617;54.046;10.676;2023-02-01T01:55:51;10.13;;;1.97;;
11125;SDS011;5617;54.046;10.676;2023-02-01T01:58:02;18.43;;;2.43;;
11125;SDS011;5617;54.046;10.676;2023-02-01T02:00:13;11.43;;;3.23;;
11125;SDS011;5617;54.046;10.676;2023-02-01T02:02:25;12.93;;;2.30;;
11125;SDS011;5617;54.046;10.676;2023-02-01T02:04:32;12.73;;;2.43;;
11125;SDS011;5617;54.046;10.676;2023-02-01T02:06:42;10.03;;;2.80;;
11125;SDS011;5617;54.046;10.676;2023-02-01T02:08:54;9.93;;;2.37;;
11125;SDS011;5617;54.046;10.676;2023-02-01T02:11:02;19.40;;;3.10;;
11125;SDS011;5617;54.046;10.676;2023-02-01T02:13:09;10.67;;;2.23;;
11125;SDS011;5617;54.046;10.676;2023-02-01T02:15:17;10.80;;;2.83;;
11125;SDS011;5617;54.046;10.676;2023-02-01T02:17:29;13.93;;;2.80;;
11125;SDS011;5617;54.046;10.676;2023-02-01T02:19:48;9.67;;;2.40;;
11125;SDS011;5617;54.046;10.676;2023-02-01T02:22:33;14.73;;;2.93;;
11125;SDS011;5617;54.046;10.676;2023-02-01T02:24:57;15.30;;;2.27;;
11125;SDS011;5617;54.046;10.676;2023-02-01T02:27:28;10.80;;;2.30;;
11125;SDS011;5617;54.046;10.676;2023-02-01T02:29:55;7.23;;;2.20;;
11125;SDS011;5617;54.046;10.676;2023-02-01T02:32:22;11.63;;;2.60;;
11125;SDS011;5617;54.046;10.676;2023-02-01T02:34:56;10.00;;;2.00;;
11125;SDS011;5617;54.046;10.676;2023-02-01T02:37:11;10.10;;;2.57;;
11125;SDS011;5617;54.046;10.676;2023-02-01T02:39:34;11.47;;;2.43;;
11125;SDS011;5617;54.046;10.676;2023-02-01T02:41:49;11.33;;;2.47;;
11125;SDS011;5617;54.046;10.676;2023-02-01T02:44:21;9.77;;;2.07;;
11125;SDS011;5617;54.046;10.676;2023-02-01T02:46:57;13.43;;;2.37;;
11125;SDS011;5617;54.046;10.676;2023-02-01T02:49:27;8.80;;;1.90;;
11125;SDS011;5617;54.046;10.676;2023-02-01T02:51:43;13.00;;;2.60;;
11125;SDS011;5617;54.046;10.676;2023-02-01T02:54:16;15.17;;;2.90;;
11125;SDS011;5617;54.046;10.676;2023-02-01T02:56:43;12.17;;;3.30;;
11125;SDS011;5617;54.046;10.676;2023-02-01T02:59:08;12.40;;;3.00;;
11125;SDS011;5617;54.046;10.676;2023-02-01T03:01:37;22.13;;;3.27;;
11125;SDS011;5617;54.046;10.676;2023-02-01T03:04:03;15.33;;;3.53;;
11125;SDS011;5617;54.046;10.676;2023-02-01T03:06:16;13.53;;;2.80;;
11125;SDS011;5617;54.046;10.676;2023-02-01T03:08:27;16.60;;;3.27;;
11125;SDS011;5617;54.046;10.676;2023-02-01T03:10:37;10.67;;;3.40;;
11125;SDS011;5617;54.046;10.676;2023-02-01T03:13:06;8.33;;;1.90;;
11125;SDS011;5617;54.046;10.676;2023-02-01T03:15:17;14.03;;;3.03;;
11125;SDS011;5617;54.046;10.676;2023-02-01T03:17:30;12.50;;;3.10;;
11125;SDS011;5617;54.046;10.676;2023-02-01T03:19:43;12.97;;;2.70;;
11125;SDS011;5617;54.046;10.676;2023-02-01T03:21:55;8.77;;;2.63;;
11125;SDS011;5617;54.046;10.676;2023-02-01T03:24:08;18.23;;;3.60;;
11125;SDS011;5617;54.046;10.676;2023-02-01T03:26:19;9.83;;;2.07;;
11125;SDS011;5617;54.046;10.676;2023-02-01T03:28:29;12.33;;;2.00;;
11125;SDS011;5617;54.046;10.676;2023-02-01T03:30:39;16.77;;;3.20;;
11125;SDS011;5617;54.046;10.676;2023-02-01T03:32:49;12.50;;;2.63;;
11125;SDS011;5617;54.046;10.676;2023-02-01T03:35:06;10.77;;;2.50;;
11125;SDS011;5617;54.046;10.676;2023-02-01T03:37:16;15.90;;;2.77;;
11125;SDS011;5617;54.046;10.676;2023-02-01T03:39:31;14.67;;;3.17;;
11125;SDS011;5617;54.046;10.676;2023-02-01T03:41:42;13.30;;;3.20;;
11125;SDS011;5617;54.046;10.676;2023-02-01T03:43:53;21.50;;;3.93;;
11125;SDS011;5617;54.046;10.676;2023-02-01T03:46:06;7.47;;;2.03;;
11125;SDS011;5617;54.046;10.676;2023-02-01T03:48:19;15.63;;;3.23;;
11125;SDS011;5617;54.046;10.676;2023-02-01T03:50:30;15.10;;;3.50;;
11125;SDS011;5617;54.046;10.676;2023-02-01T03:52:42;9.70;;;1.67;;
11125;SDS011;5617;54.046;10.676;2023-02-01T03:54:55;8.43;;;2.33;;
11125;SDS011;5617;54.046;10.676;2023-02-01T03:57:05;7.80;;;1.70;;
11125;SDS011;5617;54.046;10.676;2023-02-01T03:59:15;16.30;;;3.93;;
11125;SDS011;5617;54.046;10.676;2023-02-01T04:01:23;14.00;;;3.00;;
11125;SDS011;5617;54.046;10.676;2023-02-01T04:03:30;18.00;;;4.30;;
11125;SDS011;5617;54.046;10.676;2023-02-01T04:05:38;17.83;;;4.43;;
11125;SDS011;5617;54.046;10.676;2023-02-01T04:07:46;11.57;;;3.27;;
11125;SDS011;5617;54.046;10.676;2023-02-01T04:09:55;16.07;;;2.97;;
11125;SDS011;5617;54.046;10.676;2023-02-01T04:12:02;10.60;;;3.27;;
11125;SDS011;5617;54.046;10.676;2023-02-01T04:14:10;13.87;;;2.50;;
11125;SDS011;5617;54.046;10.676;2023-02-01T04:16:18;6.73;;;2.20;;
11125;SDS011;5617;54.046;10.676;2023-02-01T04:18:25;11.40;;;2.50;;
11125;SDS011;5617;54.046;10.676;2023-02-01T04:20:33;9.30;;;1.93;;
11125;SDS011;5617;54.046;10.676;2023-02-01T04:22:40;7.23;;;1.67;;
11125;SDS011;5617;54.046;10.676;2023-02-01T04:24:48;8.40;;;2.47;;
11125;SDS011;5617;54.046;10.676;2023-02-01T04:26:57;6.43;;;2.03;;
11125;SDS011;5617;54.046;10.676;2023-02-01T04:29:05;10.10;;;2.23;;
11125;SDS011;5617;54.046;10.676;2023-02-01T04:31:12;14.97;;;2.70;;
11125;SDS011;5617;54.046;10.676;2023-02-01T04:33:20;13.37;;;2.47;;
11125;SDS011;5617;54.046;10.676;2023-02-01T04:35:28;12.03;;;2.67;;
11125;SDS011;5617;54.046;10.676;2023-02-01T04:37:35;10.43;;;2.43;;
11125;SDS011;5617;54.046;10.676;2023-02-01T04:39:43;9.07;;;2.20;;
11125;SDS011;5617;54.046;10.676;2023-02-01T04:41:50;11.43;;;2.27;;
11125;SDS011;5617;54.046;10.676;2023-02-01T04:43:59;5.70;;;1.27;;
11125;SDS011;5617;54.046;10.676;2023-02-01T04:46:07;9.17;;;2.37;;
11125;SDS011;5617;54.046;10.676;2023-02-01T04:48:15;9.63;;;2.23;;
11125;SDS011;5617;54.046;10.676;2023-02-01T04:50:23;8.33;;;1.97;;
11125;SDS011;5617;54.046;10.676;2023-02-01T04:52:30;2.27;;;1.00;;
11125;SDS011;5617;54.046;10.676;2023-02-01T04:54:38;3.80;;;0.83;;
11125;SDS011;5617;54.046;10.676;2023-02-01T04:56:46;1.77;;;0.70;;
11125;SDS011;5617;54.046;10.676;2023-02-01T04:58:53;2.37;;;0.70;;
11125;SDS011;5617;54.046;10.676;2023-02-01T05:01:03;4.30;;;0.90;;
11125;SDS011;5617;54.046;10.676;2023-02-01T05:03:11;3.30;;;0.80;;
11125;SDS011;5617;54.046;10.676;2023-02-01T05:05:19;3.00;;;0.77;;
11125;SDS011;5617;54.046;10.676;2023-02-01T05:07:27;1.17;;;0.50;;
11125;SDS011;5617;54.046;10.676;2023-02-01T05:09:34;4.50;;;0.70;;
11125;SDS011;5617;54.046;10.676;2023-02-01T05:11:42;2.87;;;0.57;;
11125;SDS011;5617;54.046;10.676;2023-02-01T05:14:07;1.73;;;0.60;;
11125;SDS011;5617;54.046;10.676;2023-02-01T05:16:16;1.00;;;0.30;;
11125;SDS011;5617;54.046;10.676;2023-02-01T05:18:24;1.80;;;0.50;;
11125;SDS011;5617;54.046;10.676;2023-02-01T05:20:31;1.50;;;0.57;;
11125;SDS011;5617;54.046;10.676;2023-02-01T05:22:39;4.10;;;0.97;;
11125;SDS011;5617;54.046;10.676;2023-02-01T05:24:48;1.27;;;0.40;;
11125;SDS011;5617;54.046;10.676;2023-02-01T05:26:55;2.60;;;1.10;;
11125;SDS011;5617;54.046;10.676;2023-02-01T05:29:03;1.60;;;0.70;;
11125;SDS011;5617;54.046;10.676;2023-02-01T05:31:12;1.97;;;0.53;;
11125;SDS011;5617;54.046;10.676;2023-02-01T05:33:21;1.73;;;0.60;;
11125;SDS011;5617;54.046;10.676;2023-02-01T05:35:29;1.63;;;0.47;;
11125;SDS011;5617;54.046;10.676;2023-02-01T05:37:37;0.30;;;0.20;;
11125;SDS011;5617;54.046;10.676;2023-02-01T05:39:45;1.10;;;0.50;;
11125;SDS011;5617;54.046;10.676;2023-02-01T05:41:52;3.37;;;0.57;;
11125;SDS011;5617;54.046;10.676;2023-02-01T05:44:00;2.10;;;0.63;;
11125;SDS011;5617;54.046;10.676;2023-02-01T05:46:07;1.53;;;0.30;;
11125;SDS011;5617;54.046;10.676;2023-02-01T05:48:16;1.60;;;0.60;;
11125;SDS011;5617;54.046;10.676;2023-02-01T05:50:25;0.97;;;0.57;;
11125;SDS011;5617;54.046;10.676;2023-02-01T05:52:33;0.87;;;0.50;;
11125;SDS011;5617;54.046;10.676;2023-02-01T05:54:40;1.50;;;0.80;;
11125;SDS011;5617;54.046;10.676;2023-02-01T05:56:48;3.27;;;1.03;;
11125;SDS011;5617;54.046;10.676;2023-02-01T05:58:56;3.40;;;1.13;;
11125;SDS011;5617;54.046;10.676;2023-02-01T06:01:04;2.97;;;1.00;;
11125;SDS011;5617;54.046;10.676;2023-02-01T06:03:12;2.83;;;1.37;;
11125;SDS011;5617;54.046;10.676;2023-02-01T06:05:20;3.37;;;1.37;;
11125;SDS011;5617;54.046;10.676;2023-02-01T06:07:30;4.90;;;1.00;;
11125;SDS011;5617;54.046;10.676;2023-02-01T06:09:38;4.57;;;1.10;;
11125;SDS011;5617;54.046;10.676;2023-02-01T06:11:46;3.13;;;0.97;;
11125;SDS011;5617;54.046;10.676;2023-02-01T06:13:53;5.20;;;1.30;;
11125;SDS011;5617;54.046;10.676;2023-02-01T06:16:01;1.63;;;0.80;;
11125;SDS011;5617;54.046;10.676;2023-02-01T06:18:11;3.43;;;1.20;;
11125;SDS011;5617;54.046;10.676;2023-02-01T06:20:21;2.57;;;0.70;;
11125;SDS011;5617;54.046;10.676;2023-02-01T06:22:30;4.20;;;1.20;;
11125;SDS011;5617;54.046;10.676;2023-02-01T06:24:38;2.43;;;1.10;;
11125;SDS011;5617;54.046;10.676;2023-02-01T06:26:46;2.03;;;0.60;;
11125;SDS011;5617;54.046;10.676;2023-02-01T06:28:54;2.37;;;0.70;;
11125;SDS011;5617;54.046;10.676;2023-02-01T06:31:02;4.73;;;1.10;;
11125;SDS011;5617;54.046;10.676;2023-02-01T06:33:12;3.70;;;1.03;;
11125;SDS011;5617;54.046;10.676;2023-02-01T06:35:21;1.47;;;0.70;;
11125;SDS011;5617;54.046;10.676;2023-02-01T06:37:28;3.70;;;0.90;;
11125;SDS011;5617;54.046;10.676;2023-02-01T06:39:37;4.93;;;1.00;;
11125;SDS011;5617;54.046;10.676;2023-02-01T06:41:45;4.17;;;0.80;;
11125;SDS011;5617;54.046;10.676;2023-02-01T06:43:53;3.87;;;1.20;;
11125;SDS011;5617;54.046;10.676;2023-02-01T06:46:02;5.13;;;1.03;;
11125;SDS011;5617;54.046;10.676;2023-02-01T06:48:11;3.70;;;1.10;;
11125;SDS011;5617;54.046;10.676;2023-02-01T06:50:19;6.57;;;1.20;;
11125;SDS011;5617;54.046;10.676;2023-02-01T06:52:27;6.47;;;1.40;;
11125;SDS011;5617;54.046;10.676;2023-02-01T06:54:35;4.40;;;1.10;;
11125;SDS011;5617;54.046;10.676;2023-02-01T06:56:44;6.77;;;1.20;;
11125;SDS011;5617;54.046;10.676;2023-02-01T06:58:52;7.70;;;1.27;;
11125;SDS011;5617;54.046;10.676;2023-02-01T07:01:03;5.07;;;0.90;;
11125;SDS011;5617;54.046;10.676;2023-02-01T07:03:14;4.70;;;1.30;;
11125;SDS011;5617;54.046;10.676;2023-02-01T07:05:22;4.83;;;1.17;;
11125;SDS011;5617;54.046;10.676;2023-02-01T07:07:31;6.50;;;1.17;;
11125;SDS011;5617;54.046;10.676;2023-02-01T07:09:39;5.87;;;1.30;;
11125;SDS011;5617;54.046;10.676;2023-02-01T07:11:48;1.37;;;0.73;;
11125;SDS011;5617;54.046;10.676;2023-02-01T07:13:56;3.17;;;1.10;;
11125;SDS011;5617;54.046;10.676;2023-02-01T07:16:04;6.77;;;0.97;;
11125;SDS011;5617;54.046;10.676;2023-02-01T07:18:14;2.63;;;0.93;;
11125;SDS011;5617;54.046;10.676;2023-02-01T07:20:22;4.20;;;0.77;;
11125;SDS011;5617;54.046;10.676;2023-02-01T07:22:30;4.13;;;0.97;;
11125;SDS011;5617;54.046;10.676;2023-02-01T07:24:38;4.70;;;1.43;;
11125;SDS011;5617;54.046;10.676;2023-02-01T07:26:46;4.60;;;1.20;;
11125;SDS011;5617;54.046;10.676;2023-02-01T07:28:58;4.47;;;1.13;;
11125;SDS011;5617;54.046;10.676;2023-02-01T07:31:06;10.10;;;1.40;;
11125;SDS011;5617;54.046;10.676;2023-02-01T07:33:15;5.30;;;1.23;;
11125;SDS011;5617;54.046;10.676;2023-02-01T07:35:23;6.23;;;1.47;;
11125;SDS011;5617;54.046;10.676;2023-02-01T07:37:31;6.37;;;1.40;;
11125;SDS011;5617;54.046;10.676;2023-02-01T07:39:39;5.57;;;1.53;;
11125;SDS011;5617;54.046;10.676;2023-02-01T07:41:46;6.27;;;1.77;;
11125;SDS011;5617;54.046;10.676;2023-02-01T07:43:54;4.77;;;1.17;;
11125;SDS011;5617;54.046;10.676;2023-02-01T07:46:04;5.80;;;1.50;;
11125;SDS011;5617;54.046;10.676;2023-02-01T07:48:13;8.23;;;1.80;;
11125;SDS011;5617;54.046;10.676;2023-02-01T07:50:20;6.30;;;1.80;;
11125;SDS011;5617;54.046;10.676;2023-02-01T07:52:28;7.93;;;1.87;;
11125;SDS011;5617;54.046;10.676;2023-02-01T07:54:36;4.47;;;1.53;;
11125;SDS011;5617;54.046;10.676;2023-02-01T07:56:44;4.10;;;1.20;;
11125;SDS011;5617;54.046;10.676;2023-02-01T07:58:52;9.73;;;1.97;;
11125;SDS011;5617;54.046;10.676;2023-02-01T08:01:01;7.37;;;1.87;;
11125;SDS011;5617;54.046;10.676;2023-02-01T08:03:30;7.40;;;1.83;;
11125;SDS011;5617;54.046;10.676;2023-02-01T08:05:37;4.23;;;1.10;;
11125;SDS011;5617;54.046;10.676;2023-02-01T08:07:48;3.23;;;0.90;;
11125;SDS011;5617;54.046;10.676;2023-02-01T08:09:56;7.67;;;2.23;;
11125;SDS011;5617;54.046;10.676;2023-02-01T08:12:06;7.17;;;2.00;;
11125;SDS011;5617;54.046;10.676;2023-02-01T08:14:13;7.73;;;1.83;;
11125;SDS011;5617;54.046;10.676;2023-02-01T08:16:23;9.53;;;1.80;;
11125;SDS011;5617;54.046;10.676;2023-02-01T08:18:31;7.83;;;2.10;;
11125;SDS011;5617;54.046;10.676;2023-02-01T08:20:39;8.83;;;2.03;;
11125;SDS011;5617;54.046;10.676;2023-02-01T08:22:49;8.90;;;2.40;;
11125;SDS011;5617;54.046;10.676;2023-02-01T08:24:57;9.20;;;2.17;;
11125;SDS011;5617;54.046;10.676;2023-02-01T08:27:07;7.57;;;1.40;;
11125;SDS011;5617;54.046;10.676;2023-02-01T08:29:15;9.03;;;2.27;;
11125;SDS011;5617;54.046;10.676;2023-02-01T08:31:25;9.87;;;2.13;;
11125;SDS011;5617;54.046;10.676;2023-02-01T08:33:34;5.13;;;1.63;;
11125;SDS011;5617;54.046;10.676;2023-02-01T08:35:42;7.87;;;2.07;;
11125;SDS011;5617;54.046;10.676;2023-02-01T08:37:50;7.33;;;1.73;;
11125;SDS011;5617;54.046;10.676;2023-02-01T08:39:58;3.97;;;1.17;;
11125;SDS011;5617;54.046;10.676;2023-02-01T08:42:05;2.37;;;1.00;;
11125;SDS011;5617;54.046;10.676;2023-02-01T08:44:31;8.83;;;1.30;;
11125;SDS011;5617;54.046;10.676;2023-02-01T08:46:40;6.63;;;1.67;;
11125;SDS011;5617;54.046;10.676;2023-02-01T08:48:49;7.63;;;1.87;;
11125;SDS011;5617;54.046;10.676;2023-02-01T08:50:57;6.63;;;1.63;;
11125;SDS011;5617;54.046;10.676;2023-02-01T08:53:07;7.40;;;2.00;;
11125;SDS011;5617;54.046;10.676;2023-02-01T08:55:15;5.00;;;1.50;;
11125;SDS011;5617;54.046;10.676;2023-02-01T08:57:23;9.27;;;1.83;;
11125;SDS011;5617;54.046;10.676;2023-02-01T08:59:31;10.37;;;2.23;;
11125;SDS011;5617;54.046;10.676;2023-02-01T09:01:39;10.37;;;1.90;;
11125;SDS011;5617;54.046;10.676;2023-02-01T09:03:47;5.50;;;1.30;;
11125;SDS011;5617;54.046;10.676;2023-02-01T09:05:59;5.90;;;1.80;;
11125;SDS011;5617;54.046;10.676;2023-02-01T09:08:07;7.53;;;1.90;;
11125;SDS011;5617;54.046;10.676;2023-02-01T09:10:15;2.53;;;1.13;;
11125;SDS011;5617;54.046;10.676;2023-02-01T09:12:23;8.00;;;1.73;;
11125;SDS011;5617;54.046;10.676;2023-02-01T09:14:31;12.17;;;2.63;;
11125;SDS011;5617;54.046;10.676;2023-02-01T09:16:40;8.13;;;1.90;;
11125;SDS011;5617;54.046;10.676;2023-02-01T09:18:48;5.97;;;1.90;;
11125;SDS011;5617;54.046;10.676;2023-02-01T09:20:56;5.73;;;1.87;;
11125;SDS011;5617;54.046;10.676;2023-02-01T09:23:04;7.27;;;1.47;;
11125;SDS011;5617;54.046;10.676;2023-02-01T09:25:13;6.03;;;1.50;;
11125;SDS011;5617;54.046;10.676;2023-02-01T09:27:21;7.50;;;1.77;;
11125;SDS011;5617;54.046;10.676;2023-02-01T09:29:29;3.90;;;1.20;;
11125;SDS011;5617;54.046;10.676;2023-02-01T09:31:37;4.07;;;1.30;;
11125;SDS011;5617;54.046;10.676;2023-02-01T09:33:47;5.83;;;2.03;;
11125;SDS011;5617;54.046;10.676;2023-02-01T09:35:56;7.00;;;1.80;;
11125;SDS011;5617;54.046;10.676;2023-02-01T09:38:04;8.20;;;2.10;;
11125;SDS011;5617;54.046;10.676;2023-02-01T09:40:13;2.97;;;0.90;;
11125;SDS011;5617;54.046;10.676;2023-02-01T09:42:25;10.73;;;2.03;;
11125;SDS011;5617;54.046;10.676;2023-02-01T09:45:10;10.67;;;1.90;;
11125;SDS011;5617;54.046;10.676;2023-02-01T09:47:24;6.00;;;1.90;;
11125;SDS011;5617;54.046;10.676;2023-02-01T09:49:36;11.37;;;2.03;;
11125;SDS011;5617;54.046;10.676;2023-02-01T09:51:51;10.60;;;2.73;;
11125;SDS011;5617;54.046;10.676;2023-02-01T09:54:01;5.83;;;1.70;;
11125;SDS011;5617;54.046;10.676;2023-02-01T09:56:14;11.03;;;2.07;;
11125;SDS011;5617;54.046;10.676;2023-02-01T09:58:29;6.37;;;1.70;;
11125;SDS011;5617;54.046;10.676;2023-02-01T10:00:41;10.67;;;2.60;;
11125;SDS011;5617;54.046;10.676;2023-02-01T10:02:56;8.87;;;2.10;;
11125;SDS011;5617;54.046;10.676;2023-02-01T10:05:10;9.23;;;2.07;;
11125;SDS011;5617;54.046;10.676;2023-02-01T10:07:23;9.57;;;1.90;;
11125;SDS011;5617;54.046;10.676;2023-02-01T10:09:44;8.80;;;1.90;;
11125;SDS011;5617;54.046;10.676;2023-02-01T10:12:15;7.93;;;1.80;;
11125;SDS011;5617;54.046;10.676;2023-02-01T10:14:46;5.53;;;1.77;;
11125;SDS011;5617;54.046;10.676;2023-02-01T10:17:08;8.43;;;2.10;;
11125;SDS011;5617;54.046;10.676;2023-02-01T10:19:30;7.40;;;1.97;;
11125;SDS011;5617;54.046;10.676;2023-02-01T10:21:50;4.93;;;1.40;;
11125;SDS011;5617;54.046;10.676;2023-02-01T10:26:42;9.90;;;2.27;;
11125;SDS011;5617;54.046;10.676;2023-02-01T10:28:53;6.80;;;1.87;;
11125;SDS011;5617;54.046;10.676;2023-02-01T10:31:03;10.40;;;2.50;;
11125;SDS011;5617;54.046;10.676;2023-02-01T10:33:16;9.63;;;2.07;;
11125;SDS011;5617;54.046;10.676;2023-02-01T10:35:27;9.00;;;2.00;;
11125;SDS011;5617;54.046;10.676;2023-02-01T10:37:39;4.80;;;1.27;;
11125;SDS011;5617;54.046;10.676;2023-02-01T10:39:48;12.90;;;2.27;;
11125;SDS011;5617;54.046;10.676;2023-02-01T10:41:59;6.87;;;1.63;;
11125;SDS011;5617;54.046;10.676;2023-02-01T10:44:10;9.00;;;1.90;;
11125;SDS011;5617;54.046;10.676;2023-02-01T10:46:19;7.83;;;1.90;;
11125;SDS011;5617;54.046;10.676;2023-02-01T10:48:27;9.50;;;2.67;;
11125;SDS011;5617;54.046;10.676;2023-02-01T10:50:37;8.87;;;2.07;;
11125;SDS011;5617;54.046;10.676;2023-02-01T10:52:54;7.93;;;1.63;;
11125;SDS011;5617;54.046;10.676;2023-02-01T10:57:32;10.80;;;2.33;;
11125;SDS011;5617;54.046;10.676;2023-02-01T10:59:40;5.33;;;1.90;;
11125;SDS011;5617;54.046;10.676;2023-02-01T11:01:49;8.00;;;1.90;;
11125;SDS011;5617;54.046;10.676;2023-02-01T11:03:57;11.57;;;2.47;;
11125;SDS011;5617;54.046;10.676;2023-02-01T11:06:10;6.83;;;1.90;;
11125;SDS011;5617;54.046;10.676;2023-02-01T11:08:25;11.40;;;2.73;;
11125;SDS011;5617;54.046;10.676;2023-02-01T11:10:34;7.47;;;1.87;;
11125;SDS011;5617;54.046;10.676;2023-02-01T11:12:43;9.50;;;2.20;;
11125;SDS011;5617;54.046;10.676;2023-02-01T11:15:02;12.67;;;2.43;;
11125;SDS011;5617;54.046;10.676;2023-02-01T11:17:23;12.13;;;2.33;;
11125;SDS011;5617;54.046;10.676;2023-02-01T11:19:34;8.00;;;2.00;;
11125;SDS011;5617;54.046;10.676;2023-02-01T11:21:42;9.93;;;2.53;;
11125;SDS011;5617;54.046;10.676;2023-02-01T11:23:53;10.83;;;1.87;;
11125;SDS011;5617;54.046;10.676;2023-02-01T11:26:02;9.37;;;2.10;;
11125;SDS011;5617;54.046;10.676;2023-02-01T11:28:18;5.97;;;1.57;;
11125;SDS011;5617;54.046;10.676;2023-02-01T11:30:31;7.83;;;2.10;;
11125;SDS011;5617;54.046;10.676;2023-02-01T11:32:41;4.17;;;1.47;;
11125;SDS011;5617;54.046;10.676;2023-02-01T11:34:51;2.77;;;1.10;;
11125;SDS011;5617;54.046;10.676;2023-02-01T11:37:01;6.10;;;1.77;;
11125;SDS011;5617;54.046;10.676;2023-02-01T11:39:17;5.83;;;1.60;;
11125;SDS011;5617;54.046;10.676;2023-02-01T11:41:32;4.63;;;1.27;;
11125;SDS011;5617;54.046;10.676;2023-02-01T11:43:50;6.23;;;1.70;;
11125;SDS011;5617;54.046;10.676;2023-02-01T11:46:00;8.73;;;1.77;;
11125;SDS011;5617;54.046;10.676;2023-02-01T11:48:15;8.40;;;1.73;;
11125;SDS011;5617;54.046;10.676;2023-02-01T11:50:25;8.90;;;2.30;;
11125;SDS011;5617;54.046;10.676;2023-02-01T11:52:43;9.83;;;2.73;;
11125;SDS011;5617;54.046;10.676;2023-02-01T11:55:04;11.30;;;2.07;;
11125;SDS011;5617;54.046;10.676;2023-02-01T11:57:25;6.73;;;1.20;;
11125;SDS011;5617;54.046;10.676;2023-02-01T11:59:49;8.97;;;2.40;;
11125;SDS011;5617;54.046;10.676;2023-02-01T12:07:28;8.10;;;1.87;;
11125;SDS011;5617;54.046;10.676;2023-02-01T12:09:50;10.77;;;2.50;;
11125;SDS011;5617;54.046;10.676;2023-02-01T12:12:16;7.53;;;1.57;;
11125;SDS011;5617;54.046;10.676;2023-02-01T12:14:35;6.87;;;2.23;;
11125;SDS011;5617;54.046;10.676;2023-02-01T12:16:53;9.00;;;2.27;;
11125;SDS011;5617;54.046;10.676;2023-02-01T12:19:23;11.27;;;2.63;;
11125;SDS011;5617;54.046;10.676;2023-02-01T12:21:43;4.93;;;1.43;;
11125;SDS011;5617;54.046;10.676;2023-02-01T12:24:07;7.20;;;1.90;;
11125;SDS011;5617;54.046;10.676;2023-02-01T12:26:36;9.33;;;2.10;;
11125;SDS011;5617;54.046;10.676;2023-02-01T12:29:08;8.57;;;2.20;;
11125;SDS011;5617;54.046;10.676;2023-02-01T12:31:43;13.50;;;2.70;;
11125;SDS011;5617;54.046;10.676;2023-02-01T12:34:10;11.43;;;2.10;;
11125;SDS011;5617;54.046;10.676;2023-02-01T12:36:38;11.47;;;2.67;;
11125;SDS011;5617;54.046;10.676;2023-02-01T12:38:53;10.10;;;2.30;;
11125;SDS011;5617;54.046;10.676;2023-02-01T12:41:08;9.50;;;2.13;;
11125;SDS011;5617;54.046;10.676;2023-02-01T12:43:32;11.13;;;2.50;;
11125;SDS011;5617;54.046;10.676;2023-02-01T12:45:47;6.33;;;2.20;;
11125;SDS011;5617;54.046;10.676;2023-02-01T12:48:00;7.27;;;1.30;;
11125;SDS011;5617;54.046;10.676;2023-02-01T12:50:14;5.97;;;1.27;;
11125;SDS011;5617;54.046;10.676;2023-02-01T12:52:30;3.20;;;1.20;;
11125;SDS011;5617;54.046;10.676;2023-02-01T12:54:42;2.67;;;0.70;;
11125;SDS011;5617;54.046;10.676;2023-02-01T12:56:57;3.00;;;0.90;;
11125;SDS011;5617;54.046;10.676;2023-02-01T12:59:11;2.23;;;0.77;;
11125;SDS011;5617;54.046;10.676;2023-02-01T13:01:26;2.33;;;0.77;;
11125;SDS011;5617;54.046;10.676;2023-02-01T13:03:40;2.67;;;0.70;;
11125;SDS011;5617;54.046;10.676;2023-02-01T13:05:51;3.33;;;0.90;;
11125;SDS011;5617;54.046;10.676;2023-02-01T13:08:04;3.77;;;1.20;;
11125;SDS011;5617;54.046;10.676;2023-02-01T13:10:17;1.63;;;0.80;;
11125;SDS011;5617;54.046;10.676;2023-02-01T13:12:33;4.10;;;1.30;;
11125;SDS011;5617;54.046;10.676;2023-02-01T13:14:44;2.53;;;0.90;;
11125;SDS011;5617;54.046;10.676;2023-02-01T13:17:06;1.90;;;0.70;;
11125;SDS011;5617;54.046;10.676;2023-02-01T13:19:20;3.80;;;1.00;;
11125;SDS011;5617;54.046;10.676;2023-02-01T13:21:32;2.20;;;0.70;;